sensor_id;sensor_type;location;lat;lon;timestamp;temperature;humidity
16666;DHT22;8446;50.998;6.250;2023-05-24T00:00:07;9.50;99.90
16666;DHT22;8446;50.998;6.250;2023-05-24T00:02:37;9.40;99.90
16666;DHT22;8446;50.998;6.250;2023-05-24T00:05:08;9.40;99.90
16666;DHT22;8446;50.998;6.250;2023-05-24T00:07:35;9.40;99.90
16666;DHT22;8446;50.998;6.250;2023-05-24T00:10:02;9.40;99.90
16666;DHT22;8446;50.998;6.250;2023-05-24T00:12:29;9.30;99.90
16666;DHT22;8446;50.998;6.250;2023-05-24T00:14:56;9.30;99.90
16666;DHT22;8446;50.998;6.250;2023-05-24T00:17:23;9.30;99.90
16666;DHT22;8446;50.998;6.250;2023-05-24T00:19:50;9.20;99.90
16666;DHT22;8446;50.998;6.250;2023-05-24T00:22:18;9.20;99.90
16666;DHT22;8446;50.998;6.250;2023-05-24T00:24:46;9.20;99.90
16666;DHT22;8446;50.998;6.250;2023-05-24T00:27:13;9.10;99.90
16666;DHT22;8446;50.998;6.250;2023-05-24T00:29:40;9.00;99.90
16666;DHT22;8446;50.998;6.250;2023-05-24T00:32:07;9.00;99.90
16666;DHT22;8446;50.998;6.250;2023-05-24T00:34:34;9.00;99.90
16666;DHT22;8446;50.998;6.250;2023-05-24T00:37:00;9.00;99.90
16666;DHT22;8446;50.998;6.250;2023-05-24T00:39:29;8.90;99.90
16666;DHT22;8446;50.998;6.250;2023-05-24T00:41:55;8.90;99.90
16666;DHT22;8446;50.998;6.250;2023-05-24T00:44:22;8.90;99.90
16666;DHT22;8446;50.998;6.250;2023-05-24T00:46:49;8.80;99.90
16666;DHT22;8446;50.998;6.250;2023-05-24T00:49:16;8.80;99.90
16666;DHT22;8446;50.998;6.250;2023-05-24T00:51:43;8.70;99.90
16666;DHT22;8446;50.998;6.250;2023-05-24T00:54:10;8.70;99.90
16666;DHT22;8446;50.998;6.250;2023-05-24T00:56:39;8.70;99.90
16666;DHT22;8446;50.998;6.250;2023-05-24T00:59:07;8.60;99.90
16666;DHT22;8446;50.998;6.250;2023-05-24T01:01:34;8.60;99.90
16666;DHT22;8446;50.998;6.250;2023-05-24T01:04:01;8.50;99.90
16666;DHT22;8446;50.998;6.250;2023-05-24T01:06:28;8.50;99.90
16666;DHT22;8446;50.998;6.250;2023-05-24T01:09:06;8.50;99.90
16666;DHT22;8446;50.998;6.250;2023-05-24T01:11:44;8.40;99.90
16666;DHT22;8446;50.998;6.250;2023-05-24T01:14:19;8.40;99.90
16666;DHT22;8446;50.998;6.250;2023-05-24T01:16:51;8.30;99.90
16666;DHT22;8446;50.998;6.250;2023-05-24T01:19:39;8.30;99.90
16666;DHT22;8446;50.998;6.250;2023-05-24T01:25:02;8.20;99.90
16666;DHT22;8446;50.998;6.250;2023-05-24T01:27:32;8.20;99.90
16666;DHT22;8446;50.998;6.250;2023-05-24T01:30:00;8.20;99.90
16666;DHT22;8446;50.998;6.250;2023-05-24T01:32:27;8.10;99.90
16666;DHT22;8446;50.998;6.250;2023-05-24T01:34:54;8.10;99.90
16666;DHT22;8446;50.998;6.250;2023-05-24T01:37:21;8.10;99.90
16666;DHT22;8446;50.998;6.250;2023-05-24T01:39:48;8.10;99.90
16666;DHT22;8446;50.998;6.250;2023-05-24T01:42:22;8.00;99.90
16666;DHT22;8446;50.998;6.250;2023-05-24T01:44:57;8.00;99.90
16666;DHT22;8446;50.998;6.250;2023-05-24T01:47:33;8.00;99.90
16666;DHT22;8446;50.998;6.250;2023-05-24T01:50:06;8.00;99.90
16666;DHT22;8446;50.998;6.250;2023-05-24T01:52:37;7.90;99.90
16666;DHT22;8446;50.998;6.250;2023-05-24T01:55:06;7.90;99.90
16666;DHT22;8446;50.998;6.250;2023-05-24T01:57:34;7.90;99.90
16666;DHT22;8446;50.998;6.250;2023-05-24T02:00:06;7.80;99.90
16666;DHT22;8446;50.998;6.250;2023-05-24T02:02:34;7.80;99.90
16666;DHT22;8446;50.998;6.250;2023-05-24T02:05:01;7.80;99.90
16666;DHT22;8446;50.998;6.250;2023-05-24T02:07:28;7.70;99.90
16666;DHT22;8446;50.998;6.250;2023-05-24T02:09:55;7.70;99.90
16666;DHT22;8446;50.998;6.250;2023-05-24T02:12:22;7.60;99.90
16666;DHT22;8446;50.998;6.250;2023-05-24T02:14:48;7.60;99.90
16666;DHT22;8446;50.998;6.250;2023-05-24T02:17:16;7.60;99.90
16666;DHT22;8446;50.998;6.250;2023-05-24T02:19:43;7.50;99.90
16666;DHT22;8446;50.998;6.250;2023-05-24T02:22:10;7.50;99.90
16666;DHT22;8446;50.998;6.250;2023-05-24T02:24:38;7.50;99.90
16666;DHT22;8446;50.998;6.250;2023-05-24T02:27:05;7.40;99.90
16666;DHT22;8446;50.998;6.250;2023-05-24T02:29:32;7.40;99.90
16666;DHT22;8446;50.998;6.250;2023-05-24T02:31:59;7.40;99.90
16666;DHT22;8446;50.998;6.250;2023-05-24T02:34:27;7.40;99.90
16666;DHT22;8446;50.998;6.250;2023-05-24T02:36:54;7.40;99.90
16666;DHT22;8446;50.998;6.250;2023-05-24T02:39:21;7.30;99.90
16666;DHT22;8446;50.998;6.250;2023-05-24T02:41:47;7.30;99.90
16666;DHT22;8446;50.998;6.250;2023-05-24T02:44:14;7.30;99.90
16666;DHT22;8446;50.998;6.250;2023-05-24T02:46:41;7.30;99.90
16666;DHT22;8446;50.998;6.250;2023-05-24T02:49:08;7.30;99.90
16666;DHT22;8446;50.998;6.250;2023-05-24T02:51:36;7.20;99.90
16666;DHT22;8446;50.998;6.250;2023-05-24T02:54:03;7.20;99.90
16666;DHT22;8446;50.998;6.250;2023-05-24T02:56:30;7.20;99.90
16666;DHT22;8446;50.998;6.250;2023-05-24T02:58:57;7.30;99.90
16666;DHT22;8446;50.998;6.250;2023-05-24T03:01:24;7.30;99.90
16666;DHT22;8446;50.998;6.250;2023-05-24T03:03:50;7.30;99.90
16666;DHT22;8446;50.998;6.250;2023-05-24T03:06:17;7.30;99.90
16666;DHT22;8446;50.998;6.250;2023-05-24T03:08:45;7.30;99.90
16666;DHT22;8446;50.998;6.250;2023-05-24T03:11:13;7.30;99.90
16666;DHT22;8446;50.998;6.250;2023-05-24T03:13:40;7.20;99.90
16666;DHT22;8446;50.998;6.250;2023-05-24T03:16:07;7.20;99.90
16666;DHT22;8446;50.998;6.250;2023-05-24T03:18:34;7.20;99.90
16666;DHT22;8446;50.998;6.250;2023-05-24T03:21:00;7.20;99.90
16666;DHT22;8446;50.998;6.250;2023-05-24T03:23:27;7.20;99.90
16666;DHT22;8446;50.998;6.250;2023-05-24T03:25:55;7.20;99.90
16666;DHT22;8446;50.998;6.250;2023-05-24T03:28:22;7.20;99.90
16666;DHT22;8446;50.998;6.250;2023-05-24T03:30:49;7.10;99.90
16666;DHT22;8446;50.998;6.250;2023-05-24T03:33:16;7.10;99.90
16666;DHT22;8446;50.998;6.250;2023-05-24T03:35:43;7.10;99.90
16666;DHT22;8446;50.998;6.250;2023-05-24T03:38:10;7.00;99.90
16666;DHT22;8446;50.998;6.250;2023-05-24T03:40:36;7.00;99.90
16666;DHT22;8446;50.998;6.250;2023-05-24T03:43:04;7.00;99.90
16666;DHT22;8446;50.998;6.250;2023-05-24T03:45:31;6.90;99.90
16666;DHT22;8446;50.998;6.250;2023-05-24T03:47:58;6.80;99.90
16666;DHT22;8446;50.998;6.250;2023-05-24T03:50:25;6.80;99.90
16666;DHT22;8446;50.998;6.250;2023-05-24T03:52:52;6.80;99.90
16666;DHT22;8446;50.998;6.250;2023-05-24T03:55:18;6.70;99.90
16666;DHT22;8446;50.998;6.250;2023-05-24T03:57:45;6.70;99.90
16666;DHT22;8446;50.998;6.250;2023-05-24T04:00:14;6.70;99.90
16666;DHT22;8446;50.998;6.250;2023-05-24T04:02:41;6.70;99.90
16666;DHT22;8446;50.998;6.250;2023-05-24T04:05:08;6.70;99.90
16666;DHT22;8446;50.998;6.250;2023-05-24T04:07:35;6.70;99.90
16666;DHT22;8446;50.998;6.250;2023-05-24T04:10:03;6.70;99.90
16666;DHT22;8446;50.998;6.250;2023-05-24T04:12:30;6.70;99.90
16666;DHT22;8446;50.998;6.250;2023-05-24T04:14:57;6.80;99.90
16666;DHT22;8446;50.998;6.250;2023-05-24T04:17:26;6.80;99.90
16666;DHT22;8446;50.998;6.250;2023-05-24T04:19:54;6.80;99.90
16666;DHT22;8446;50.998;6.250;2023-05-24T04:22:21;6.80;99.90
16666;DHT22;8446;50.998;6.250;2023-05-24T04:24:48;6.80;99.90
16666;DHT22;8446;50.998;6.250;2023-05-24T04:27:15;6.90;99.90
16666;DHT22;8446;50.998;6.250;2023-05-24T04:29:43;6.90;99.90
16666;DHT22;8446;50.998;6.250;2023-05-24T04:32:14;7.00;99.90
16666;DHT22;8446;50.998;6.250;2023-05-24T04:34:43;7.00;99.90
16666;DHT22;8446;50.998;6.250;2023-05-24T04:37:10;7.00;99.90
16666;DHT22;8446;50.998;6.250;2023-05-24T04:39:41;7.10;99.90
16666;DHT22;8446;50.998;6.250;2023-05-24T04:42:08;7.10;99.90
16666;DHT22;8446;50.998;6.250;2023-05-24T04:44:35;7.10;99.90
16666;DHT22;8446;50.998;6.250;2023-05-24T04:47:02;7.20;99.90
16666;DHT22;8446;50.998;6.250;2023-05-24T04:49:29;7.20;99.90
16666;DHT22;8446;50.998;6.250;2023-05-24T04:51:57;7.10;99.90
16666;DHT22;8446;50.998;6.250;2023-05-24T04:54:24;7.20;99.90
16666;DHT22;8446;50.998;6.250;2023-05-24T04:56:51;7.20;99.90
16666;DHT22;8446;50.998;6.250;2023-05-24T04:59:18;7.20;99.90
16666;DHT22;8446;50.998;6.250;2023-05-24T05:01:45;7.30;99.90
16666;DHT22;8446;50.998;6.250;2023-05-24T05:04:12;7.30;99.90
16666;DHT22;8446;50.998;6.250;2023-05-24T05:06:41;7.30;99.90
16666;DHT22;8446;50.998;6.250;2023-05-24T05:09:10;7.30;99.90
16666;DHT22;8446;50.998;6.250;2023-05-24T05:11:39;7.30;99.90
16666;DHT22;8446;50.998;6.250;2023-05-24T05:14:06;7.40;99.90
16666;DHT22;8446;50.998;6.250;2023-05-24T05:16:34;7.40;99.90
16666;DHT22;8446;50.998;6.250;2023-05-24T05:19:02;7.50;99.90
16666;DHT22;8446;50.998;6.250;2023-05-24T05:21:30;7.50;99.90
16666;DHT22;8446;50.998;6.250;2023-05-24T05:23:58;7.60;99.90
16666;DHT22;8446;50.998;6.250;2023-05-24T05:26:27;7.70;99.90
16666;DHT22;8446;50.998;6.250;2023-05-24T05:28:54;7.70;99.90
16666;DHT22;8446;50.998;6.250;2023-05-24T05:31:21;7.80;99.90
16666;DHT22;8446;50.998;6.250;2023-05-24T05:33:48;7.90;99.90
16666;DHT22;8446;50.998;6.250;2023-05-24T05:36:15;8.00;99.90
16666;DHT22;8446;50.998;6.250;2023-05-24T05:38:42;8.10;99.90
16666;DHT22;8446;50.998;6.250;2023-05-24T05:41:09;8.10;99.90
16666;DHT22;8446;50.998;6.250;2023-05-24T05:43:37;8.20;99.90
16666;DHT22;8446;50.998;6.250;2023-05-24T05:46:04;8.30;99.90
16666;DHT22;8446;50.998;6.250;2023-05-24T05:48:31;8.40;99.90
16666;DHT22;8446;50.998;6.250;2023-05-24T05:50:58;8.50;99.90
16666;DHT22;8446;50.998;6.250;2023-05-24T05:53:25;8.60;99.90
16666;DHT22;8446;50.998;6.250;2023-05-24T05:55:51;8.70;99.90
16666;DHT22;8446;50.998;6.250;2023-05-24T05:58:18;8.80;99.90
16666;DHT22;8446;50.998;6.250;2023-05-24T06:00:46;9.00;99.90
16666;DHT22;8446;50.998;6.250;2023-05-24T06:03:13;9.00;99.90
16666;DHT22;8446;50.998;6.250;2023-05-24T06:05:40;9.10;99.90
16666;DHT22;8446;50.998;6.250;2023-05-24T06:08:07;9.30;99.90
16666;DHT22;8446;50.998;6.250;2023-05-24T06:10:34;9.40;99.90
16666;DHT22;8446;50.998;6.250;2023-05-24T06:13:02;9.50;99.90
16666;DHT22;8446;50.998;6.250;2023-05-24T06:15:29;9.70;99.90
16666;DHT22;8446;50.998;6.250;2023-05-24T06:17:59;9.90;99.90
16666;DHT22;8446;50.998;6.250;2023-05-24T06:20:26;10.10;99.90
16666;DHT22;8446;50.998;6.250;2023-05-24T06:22:53;10.20;99.90
16666;DHT22;8446;50.998;6.250;2023-05-24T06:25:20;10.40;99.90
16666;DHT22;8446;50.998;6.250;2023-05-24T06:27:48;10.60;99.90
16666;DHT22;8446;50.998;6.250;2023-05-24T06:30:16;10.80;99.90
16666;DHT22;8446;50.998;6.250;2023-05-24T06:32:43;11.00;99.90
16666;DHT22;8446;50.998;6.250;2023-05-24T06:35:11;11.10;99.90
16666;DHT22;8446;50.998;6.250;2023-05-24T06:37:38;11.30;99.90
16666;DHT22;8446;50.998;6.250;2023-05-24T06:40:06;11.50;99.90
16666;DHT22;8446;50.998;6.250;2023-05-24T06:42:34;11.60;99.90
16666;DHT22;8446;50.998;6.250;2023-05-24T06:45:01;11.70;99.90
16666;DHT22;8446;50.998;6.250;2023-05-24T06:47:28;11.80;99.90
16666;DHT22;8446;50.998;6.250;2023-05-24T06:49:54;12.00;99.90
16666;DHT22;8446;50.998;6.250;2023-05-24T06:52:22;12.10;99.90
16666;DHT22;8446;50.998;6.250;2023-05-24T06:54:50;12.20;99.90
16666;DHT22;8446;50.998;6.250;2023-05-24T06:57:17;12.30;99.90
16666;DHT22;8446;50.998;6.250;2023-05-24T06:59:44;12.40;99.90
16666;DHT22;8446;50.998;6.250;2023-05-24T07:02:11;12.40;99.90
16666;DHT22;8446;50.998;6.250;2023-05-24T07:04:38;12.30;99.90
16666;DHT22;8446;50.998;6.250;2023-05-24T07:07:07;12.40;99.90
16666;DHT22;8446;50.998;6.250;2023-05-24T07:09:38;12.60;99.90
16666;DHT22;8446;50.998;6.250;2023-05-24T07:12:05;12.80;99.90
16666;DHT22;8446;50.998;6.250;2023-05-24T07:14:32;12.80;99.90
16666;DHT22;8446;50.998;6.250;2023-05-24T07:16:59;13.00;99.90
16666;DHT22;8446;50.998;6.250;2023-05-24T07:19:26;13.20;99.90
16666;DHT22;8446;50.998;6.250;2023-05-24T07:21:53;13.20;99.90
16666;DHT22;8446;50.998;6.250;2023-05-24T07:24:20;13.20;99.90
16666;DHT22;8446;50.998;6.250;2023-05-24T07:26:50;13.30;99.90
16666;DHT22;8446;50.998;6.250;2023-05-24T07:29:18;13.30;99.90
16666;DHT22;8446;50.998;6.250;2023-05-24T07:31:45;13.50;99.90
16666;DHT22;8446;50.998;6.250;2023-05-24T07:34:12;13.50;99.90
16666;DHT22;8446;50.998;6.250;2023-05-24T07:36:39;13.60;99.90
16666;DHT22;8446;50.998;6.250;2023-05-24T07:39:06;13.70;99.90
16666;DHT22;8446;50.998;6.250;2023-05-24T07:41:34;13.70;99.90
16666;DHT22;8446;50.998;6.250;2023-05-24T07:44:03;13.60;99.90
16666;DHT22;8446;50.998;6.250;2023-05-24T07:46:29;13.80;99.90
16666;DHT22;8446;50.998;6.250;2023-05-24T07:48:57;13.80;99.90
16666;DHT22;8446;50.998;6.250;2023-05-24T07:51:23;14.00;99.90
16666;DHT22;8446;50.998;6.250;2023-05-24T07:53:51;14.20;99.90
16666;DHT22;8446;50.998;6.250;2023-05-24T07:56:17;14.40;99.90
16666;DHT22;8446;50.998;6.250;2023-05-24T07:58:44;14.70;99.90
16666;DHT22;8446;50.998;6.250;2023-05-24T08:01:13;14.90;99.90
16666;DHT22;8446;50.998;6.250;2023-05-24T08:03:40;14.80;99.90
16666;DHT22;8446;50.998;6.250;2023-05-24T08:06:07;14.80;99.90
16666;DHT22;8446;50.998;6.250;2023-05-24T08:08:34;14.80;99.90
16666;DHT22;8446;50.998;6.250;2023-05-24T08:11:01;14.80;99.90
16666;DHT22;8446;50.998;6.250;2023-05-24T08:13:28;15.00;99.90
16666;DHT22;8446;50.998;6.250;2023-05-24T08:15:55;15.20;99.90
16666;DHT22;8446;50.998;6.250;2023-05-24T08:18:24;15.20;99.90
16666;DHT22;8446;50.998;6.250;2023-05-24T08:20:51;15.20;99.90
16666;DHT22;8446;50.998;6.250;2023-05-24T08:23:17;15.30;99.90
16666;DHT22;8446;50.998;6.250;2023-05-24T08:25:44;15.30;99.90
16666;DHT22;8446;50.998;6.250;2023-05-24T08:28:11;15.20;99.90
16666;DHT22;8446;50.998;6.250;2023-05-24T08:30:38;15.00;99.90
16666;DHT22;8446;50.998;6.250;2023-05-24T08:33:05;15.10;99.90
16666;DHT22;8446;50.998;6.250;2023-05-24T08:35:33;15.10;99.90
16666;DHT22;8446;50.998;6.250;2023-05-24T08:38:00;15.00;99.90
16666;DHT22;8446;50.998;6.250;2023-05-24T08:40:27;14.90;99.90
16666;DHT22;8446;50.998;6.250;2023-05-24T08:42:54;14.90;99.90
16666;DHT22;8446;50.998;6.250;2023-05-24T08:45:25;14.70;99.90
16666;DHT22;8446;50.998;6.250;2023-05-24T08:47:55;14.60;99.90
16666;DHT22;8446;50.998;6.250;2023-05-24T08:50:23;14.50;99.90
16666;DHT22;8446;50.998;6.250;2023-05-24T08:52:52;14.40;99.90
16666;DHT22;8446;50.998;6.250;2023-05-24T08:55:20;14.30;99.90
16666;DHT22;8446;50.998;6.250;2023-05-24T08:57:47;14.60;99.90
16666;DHT22;8446;50.998;6.250;2023-05-24T09:00:16;15.20;99.90
16666;DHT22;8446;50.998;6.250;2023-05-24T09:02:45;15.70;99.90
16666;DHT22;8446;50.998;6.250;2023-05-24T09:05:13;15.80;99.90
16666;DHT22;8446;50.998;6.250;2023-05-24T09:07:42;15.60;99.90
16666;DHT22;8446;50.998;6.250;2023-05-24T09:10:11;15.80;99.90
16666;DHT22;8446;50.998;6.250;2023-05-24T09:12:39;16.00;99.90
16666;DHT22;8446;50.998;6.250;2023-05-24T09:15:10;16.00;99.90
16666;DHT22;8446;50.998;6.250;2023-05-24T09:17:37;16.00;99.90
16666;DHT22;8446;50.998;6.250;2023-05-24T09:20:06;15.90;99.90
16666;DHT22;8446;50.998;6.250;2023-05-24T09:22:35;15.90;99.90
16666;DHT22;8446;50.998;6.250;2023-05-24T09:25:04;15.80;99.90
16666;DHT22;8446;50.998;6.250;2023-05-24T09:27:34;15.60;99.90
16666;DHT22;8446;50.998;6.250;2023-05-24T09:30:01;15.60;99.90
16666;DHT22;8446;50.998;6.250;2023-05-24T09:32:30;15.50;99.90
16666;DHT22;8446;50.998;6.250;2023-05-24T09:34:57;15.40;99.90
16666;DHT22;8446;50.998;6.250;2023-05-24T09:37:25;15.30;99.90
16666;DHT22;8446;50.998;6.250;2023-05-24T09:39:54;15.40;99.90
16666;DHT22;8446;50.998;6.250;2023-05-24T09:42:24;15.50;99.90
16666;DHT22;8446;50.998;6.250;2023-05-24T09:44:59;15.70;99.90
16666;DHT22;8446;50.998;6.250;2023-05-24T09:47:28;15.90;99.90
16666;DHT22;8446;50.998;6.250;2023-05-24T09:49:55;16.20;99.90
16666;DHT22;8446;50.998;6.250;2023-05-24T09:52:22;16.40;99.90
16666;DHT22;8446;50.998;6.250;2023-05-24T09:54:49;16.50;99.90
16666;DHT22;8446;50.998;6.250;2023-05-24T09:57:16;16.60;99.90
16666;DHT22;8446;50.998;6.250;2023-05-24T09:59:43;16.60;99.90
16666;DHT22;8446;50.998;6.250;2023-05-24T10:02:11;16.70;99.90
16666;DHT22;8446;50.998;6.250;2023-05-24T10:04:38;16.80;99.90
16666;DHT22;8446;50.998;6.250;2023-05-24T10:07:06;16.90;99.90
16666;DHT22;8446;50.998;6.250;2023-05-24T10:09:33;17.00;99.90
16666;DHT22;8446;50.998;6.250;2023-05-24T10:12:01;17.10;99.90
16666;DHT22;8446;50.998;6.250;2023-05-24T10:14:31;17.10;99.90
16666;DHT22;8446;50.998;6.250;2023-05-24T10:17:00;16.90;99.90
16666;DHT22;8446;50.998;6.250;2023-05-24T10:19:29;17.00;99.90
16666;DHT22;8446;50.998;6.250;2023-05-24T10:21:57;17.10;99.90
16666;DHT22;8446;50.998;6.250;2023-05-24T10:24:28;17.10;99.90
16666;DHT22;8446;50.998;6.250;2023-05-24T10:26:59;17.10;99.90
16666;DHT22;8446;50.998;6.250;2023-05-24T10:29:38;17.00;99.90
16666;DHT22;8446;50.998;6.250;2023-05-24T10:32:07;16.70;99.90
16666;DHT22;8446;50.998;6.250;2023-05-24T10:34:36;16.50;99.90
16666;DHT22;8446;50.998;6.250;2023-05-24T10:37:04;16.60;99.90
16666;DHT22;8446;50.998;6.250;2023-05-24T10:39:32;16.70;99.90
16666;DHT22;8446;50.998;6.250;2023-05-24T10:42:01;16.60;99.90
16666;DHT22;8446;50.998;6.250;2023-05-24T10:44:28;16.70;99.90
16666;DHT22;8446;50.998;6.250;2023-05-24T10:47:09;16.90;99.90
16666;DHT22;8446;50.998;6.250;2023-05-24T10:49:46;17.00;99.90
16666;DHT22;8446;50.998;6.250;2023-05-24T10:52:13;16.80;99.90
16666;DHT22;8446;50.998;6.250;2023-05-24T10:54:40;16.90;99.90
16666;DHT22;8446;50.998;6.250;2023-05-24T10:57:26;16.90;99.90
16666;DHT22;8446;50.998;6.250;2023-05-24T10:59:55;16.70;99.90
16666;DHT22;8446;50.998;6.250;2023-05-24T11:02:26;16.60;99.90
16666;DHT22;8446;50.998;6.250;2023-05-24T11:04:55;16.30;99.90
16666;DHT22;8446;50.998;6.250;2023-05-24T11:07:24;16.20;99.90
16666;DHT22;8446;50.998;6.250;2023-05-24T11:09:55;15.90;99.90
16666;DHT22;8446;50.998;6.250;2023-05-24T11:12:29;15.50;99.90
16666;DHT22;8446;50.998;6.250;2023-05-24T11:15:01;15.40;99.90
16666;DHT22;8446;50.998;6.250;2023-05-24T11:17:28;15.20;99.90
16666;DHT22;8446;50.998;6.250;2023-05-24T11:19:56;15.10;99.90
16666;DHT22;8446;50.998;6.250;2023-05-24T11:22:25;15.00;99.90
16666;DHT22;8446;50.998;6.250;2023-05-24T11:24:52;15.10;99.90
16666;DHT22;8446;50.998;6.250;2023-05-24T11:27:19;15.00;99.90
16666;DHT22;8446;50.998;6.250;2023-05-24T11:29:47;15.00;99.90
16666;DHT22;8446;50.998;6.250;2023-05-24T11:32:14;15.10;99.90
16666;DHT22;8446;50.998;6.250;2023-05-24T11:34:42;15.30;99.90
16666;DHT22;8446;50.998;6.250;2023-05-24T11:37:11;15.50;99.90
16666;DHT22;8446;50.998;6.250;2023-05-24T11:39:40;15.90;99.90
16666;DHT22;8446;50.998;6.250;2023-05-24T11:42:07;16.40;99.90
16666;DHT22;8446;50.998;6.250;2023-05-24T11:44:35;16.90;99.90
16666;DHT22;8446;50.998;6.250;2023-05-24T11:47:05;17.50;99.90
16666;DHT22;8446;50.998;6.250;2023-05-24T11:49:32;18.00;99.90
16666;DHT22;8446;50.998;6.250;2023-05-24T11:52:00;18.20;99.90
16666;DHT22;8446;50.998;6.250;2023-05-24T11:54:28;18.50;99.90
16666;DHT22;8446;50.998;6.250;2023-05-24T11:56:57;18.70;99.90
16666;DHT22;8446;50.998;6.250;2023-05-24T11:59:24;19.00;99.90
16666;DHT22;8446;50.998;6.250;2023-05-24T12:01:57;19.50;99.90
16666;DHT22;8446;50.998;6.250;2023-05-24T12:04:27;19.80;99.90
16666;DHT22;8446;50.998;6.250;2023-05-24T12:06:54;20.20;99.90
16666;DHT22;8446;50.998;6.250;2023-05-24T12:09:21;20.40;99.90
16666;DHT22;8446;50.998;6.250;2023-05-24T12:11:51;20.20;99.90
16666;DHT22;8446;50.998;6.250;2023-05-24T12:14:19;20.10;99.90
16666;DHT22;8446;50.998;6.250;2023-05-24T12:16:48;20.00;99.90
16666;DHT22;8446;50.998;6.250;2023-05-24T12:19:18;19.50;99.90
16666;DHT22;8446;50.998;6.250;2023-05-24T12:21:46;19.70;99.90
16666;DHT22;8446;50.998;6.250;2023-05-24T12:24:15;20.10;99.90
16666;DHT22;8446;50.998;6.250;2023-05-24T12:26:45;20.60;99.90
16666;DHT22;8446;50.998;6.250;2023-05-24T12:29:14;21.10;99.90
16666;DHT22;8446;50.998;6.250;2023-05-24T12:31:42;21.20;99.90
16666;DHT22;8446;50.998;6.250;2023-05-24T12:34:10;21.60;99.90
16666;DHT22;8446;50.998;6.250;2023-05-24T12:36:37;21.20;99.90
16666;DHT22;8446;50.998;6.250;2023-05-24T12:39:20;21.10;99.90
16666;DHT22;8446;50.998;6.250;2023-05-24T12:41:51;20.80;99.90
16666;DHT22;8446;50.998;6.250;2023-05-24T12:44:22;20.80;99.90
16666;DHT22;8446;50.998;6.250;2023-05-24T12:46:51;21.10;99.90
16666;DHT22;8446;50.998;6.250;2023-05-24T12:49:18;21.10;99.90
16666;DHT22;8446;50.998;6.250;2023-05-24T12:51:45;20.60;99.90
16666;DHT22;8446;50.998;6.250;2023-05-24T12:54:12;20.30;99.90
16666;DHT22;8446;50.998;6.250;2023-05-24T12:56:39;20.50;99.90
16666;DHT22;8446;50.998;6.250;2023-05-24T12:59:06;20.60;99.90
16666;DHT22;8446;50.998;6.250;2023-05-24T13:01:34;20.50;99.90
16666;DHT22;8446;50.998;6.250;2023-05-24T13:04:01;20.20;99.90
16666;DHT22;8446;50.998;6.250;2023-05-24T13:06:28;19.90;99.90
16666;DHT22;8446;50.998;6.250;2023-05-24T13:08:55;19.50;99.90
16666;DHT22;8446;50.998;6.250;2023-05-24T13:11:22;19.00;99.90
16666;DHT22;8446;50.998;6.250;2023-05-24T13:13:49;18.60;99.90
16666;DHT22;8446;50.998;6.250;2023-05-24T13:16:16;18.40;99.90
16666;DHT22;8446;50.998;6.250;2023-05-24T13:18:45;17.90;99.90
16666;DHT22;8446;50.998;6.250;2023-05-24T13:21:12;17.60;99.90
16666;DHT22;8446;50.998;6.250;2023-05-24T13:23:39;17.50;99.90
16666;DHT22;8446;50.998;6.250;2023-05-24T13:26:07;17.40;99.90
16666;DHT22;8446;50.998;6.250;2023-05-24T13:28:34;17.20;99.90
16666;DHT22;8446;50.998;6.250;2023-05-24T13:31:01;17.30;99.90
16666;DHT22;8446;50.998;6.250;2023-05-24T13:33:29;17.20;99.90
16666;DHT22;8446;50.998;6.250;2023-05-24T13:35:57;17.30;99.90
16666;DHT22;8446;50.998;6.250;2023-05-24T13:38:24;17.30;99.90
16666;DHT22;8446;50.998;6.250;2023-05-24T13:40:52;17.30;99.90
16666;DHT22;8446;50.998;6.250;2023-05-24T13:43:19;17.40;99.90
16666;DHT22;8446;50.998;6.250;2023-05-24T13:45:47;17.50;99.90
16666;DHT22;8446;50.998;6.250;2023-05-24T13:48:13;17.50;99.90
16666;DHT22;8446;50.998;6.250;2023-05-24T13:50:40;17.60;99.90
16666;DHT22;8446;50.998;6.250;2023-05-24T13:53:10;17.70;99.90
16666;DHT22;8446;50.998;6.250;2023-05-24T13:55:37;17.90;99.90
16666;DHT22;8446;50.998;6.250;2023-05-24T13:58:03;17.90;99.90
16666;DHT22;8446;50.998;6.250;2023-05-24T14:00:30;18.00;99.90
16666;DHT22;8446;50.998;6.250;2023-05-24T14:02:57;18.10;99.90
16666;DHT22;8446;50.998;6.250;2023-05-24T14:05:24;17.90;99.90
16666;DHT22;8446;50.998;6.250;2023-05-24T14:07:53;17.80;99.90
16666;DHT22;8446;50.998;6.250;2023-05-24T14:10:21;17.70;99.90
16666;DHT22;8446;50.998;6.250;2023-05-24T14:12:49;17.40;99.90
16666;DHT22;8446;50.998;6.250;2023-05-24T14:15:15;17.30;99.90
16666;DHT22;8446;50.998;6.250;2023-05-24T14:17:42;17.40;99.90
16666;DHT22;8446;50.998;6.250;2023-05-24T14:20:10;17.50;99.90
16666;DHT22;8446;50.998;6.250;2023-05-24T14:22:37;17.40;99.90
16666;DHT22;8446;50.998;6.250;2023-05-24T14:25:05;17.60;99.90
16666;DHT22;8446;50.998;6.250;2023-05-24T14:27:33;17.80;99.90
16666;DHT22;8446;50.998;6.250;2023-05-24T14:30:00;17.90;99.90
16666;DHT22;8446;50.998;6.250;2023-05-24T14:32:27;18.00;99.90
16666;DHT22;8446;50.998;6.250;2023-05-24T14:34:53;18.20;99.90
16666;DHT22;8446;50.998;6.250;2023-05-24T14:37:20;18.40;99.90
16666;DHT22;8446;50.998;6.250;2023-05-24T14:39:47;18.30;99.90
16666;DHT22;8446;50.998;6.250;2023-05-24T14:42:14;18.20;99.90
16666;DHT22;8446;50.998;6.250;2023-05-24T14:44:42;18.50;99.90
16666;DHT22;8446;50.998;6.250;2023-05-24T14:47:09;18.80;99.90
16666;DHT22;8446;50.998;6.250;2023-05-24T14:49:36;18.90;99.90
16666;DHT22;8446;50.998;6.250;2023-05-24T14:52:03;18.60;99.90
16666;DHT22;8446;50.998;6.250;2023-05-24T14:54:30;18.40;99.90
16666;DHT22;8446;50.998;6.250;2023-05-24T14:56:56;18.50;99.90
16666;DHT22;8446;50.998;6.250;2023-05-24T14:59:23;18.50;99.90
16666;DHT22;8446;50.998;6.250;2023-05-24T15:01:51;18.50;99.90
16666;DHT22;8446;50.998;6.250;2023-05-24T15:04:18;18.10;99.90
16666;DHT22;8446;50.998;6.250;2023-05-24T15:06:45;18.20;99.90
16666;DHT22;8446;50.998;6.250;2023-05-24T15:09:12;18.40;99.90
16666;DHT22;8446;50.998;6.250;2023-05-24T15:11:39;18.80;99.90
16666;DHT22;8446;50.998;6.250;2023-05-24T15:14:05;19.00;99.90
16666;DHT22;8446;50.998;6.250;2023-05-24T15:16:32;18.90;99.90
16666;DHT22;8446;50.998;6.250;2023-05-24T15:19:00;18.90;99.90
16666;DHT22;8446;50.998;6.250;2023-05-24T15:21:27;18.80;99.90
16666;DHT22;8446;50.998;6.250;2023-05-24T15:23:54;18.60;99.90
16666;DHT22;8446;50.998;6.250;2023-05-24T15:26:20;18.70;99.90
16666;DHT22;8446;50.998;6.250;2023-05-24T15:28:47;18.70;99.90
16666;DHT22;8446;50.998;6.250;2023-05-24T15:31:14;18.60;99.90
16666;DHT22;8446;50.998;6.250;2023-05-24T15:33:41;18.70;99.90
16666;DHT22;8446;50.998;6.250;2023-05-24T15:36:09;18.80;99.90
16666;DHT22;8446;50.998;6.250;2023-05-24T15:38:38;19.00;99.90
16666;DHT22;8446;50.998;6.250;2023-05-24T15:41:06;19.40;99.90
16666;DHT22;8446;50.998;6.250;2023-05-24T15:43:33;20.50;99.90
16666;DHT22;8446;50.998;6.250;2023-05-24T15:46:00;21.60;99.90
16666;DHT22;8446;50.998;6.250;2023-05-24T15:48:27;22.70;99.90
16666;DHT22;8446;50.998;6.250;2023-05-24T15:50:54;23.90;99.90
16666;DHT22;8446;50.998;6.250;2023-05-24T15:53:22;25.40;98.20
16666;DHT22;8446;50.998;6.250;2023-05-24T15:55:49;25.60;94.20
16666;DHT22;8446;50.998;6.250;2023-05-24T15:58:16;25.40;94.20